< < Back
Terminal Aerodrome Forecast


Current Version              Previous Versions:   1  2  3  4  5  6  7  8  9  

Terminal Aerodrome Forecast

668
FTUS42 KFFC 241700
TAFCSG
TAF
KCSG 241740Z 2418/2518 19005KT P6SM SCT050
     FM250300 20004KT P6SM BKN045
     FM251200 23006KT P6SM BKN025
     FM251500 26010G18KT P6SM SCT040=



Latest METAR

795
SAUS70 KWBC 242000
MTRCSG
METAR KCSG 241951Z 22005KT 10SM SCT080 27/09 A2993 RMK AO2 SLP132
T02720094


USA.gov is the U.S. government's official web portal to all federal, state and local government web resources and services.